Time;durP1;ratioP1;P1;durP2;ratioP2;P2;SDS_P1;SDS_P2;PMS_P1;PMS_P2;Temp;Humidity;BMP_temperature;BMP_pressure;BME280_temperature;BME280_humidity;BME280_pressure;Samples;Min_cycle;Max_cycle;Signal;HPM_P1;HPM_P2
2022/02/23 00:01:56;;;;;;;10.45;7.47;;;;;;;9.93;43.92;101802.28;5110586;28;20131;-59
2022/02/23 00:04:23;;;;;;;15.07;7.20;;;;;;;9.86;43.97;101808.66;5111753;28;20564;-59
2022/02/23 00:06:50;;;;;;;10.90;6.85;;;;;;;9.84;43.92;101810.50;5111862;28;20044;-59
2022/02/23 00:09:21;;;;;;;10.40;6.22;;;;;;;9.84;43.93;101804.38;5111628;28;20519;-59
2022/02/23 00:11:48;;;;;;;10.65;6.80;;;;;;;9.77;43.95;101798.53;5109473;28;20039;-59
2022/02/23 00:14:14;;;;;;;10.38;6.00;;;;;;;9.75;43.91;101803.81;5106998;28;20052;-59
2022/02/23 00:16:41;;;;;;;8.90;6.03;;;;;;;9.70;44.01;101811.00;5111825;28;20039;-59
2022/02/23 00:19:08;;;;;;;11.15;6.60;;;;;;;9.70;43.83;101813.63;5097040;28;20114;-59
2022/02/23 00:21:35;;;;;;;16.75;8.23;;;;;;;9.71;43.85;101812.69;5114938;28;20047;-60
2022/02/23 00:24:02;;;;;;;19.50;11.32;;;;;;;9.66;43.78;101816.41;5115184;28;20051;-60
2022/02/23 00:26:28;;;;;;;14.23;8.95;;;;;;;9.61;43.98;101817.44;5115372;28;20043;-59
2022/02/23 00:28:55;;;;;;;15.02;7.95;;;;;;;9.60;43.88;101828.81;5095529;28;20051;-59
2022/02/23 00:31:22;;;;;;;15.93;10.40;;;;;;;9.59;43.89;101824.47;5111251;28;20488;-60
2022/02/23 00:33:48;;;;;;;11.73;8.15;;;;;;;9.57;43.84;101828.94;5115291;28;20040;-59
2022/02/23 00:36:15;;;;;;;9.55;7.32;;;;;;;9.55;43.87;101829.88;5115282;28;20408;-59
2022/02/23 00:38:42;;;;;;;11.10;6.28;;;;;;;9.55;43.83;101837.72;5114832;28;20044;-59
2022/02/23 00:41:08;;;;;;;8.10;6.10;;;;;;;9.48;44.07;101839.72;5115147;28;20545;-59
2022/02/23 00:43:36;;;;;;;9.32;5.85;;;;;;;9.42;44.13;101835.56;5094908;28;20044;-59
2022/02/23 00:46:03;;;;;;;9.23;6.03;;;;;;;9.39;44.23;101829.56;5101596;28;20506;-60
2022/02/23 00:48:29;;;;;;;8.80;5.78;;;;;;;9.38;44.20;101840.94;5115105;28;20044;-60
2022/02/23 00:50:56;;;;;;;9.15;5.97;;;;;;;9.37;44.13;101829.63;5114811;28;20044;-59
2022/02/23 00:53:23;;;;;;;9.82;5.93;;;;;;;9.38;44.05;101833.06;5114734;28;20058;-59
2022/02/23 00:55:51;;;;;;;9.57;5.45;;;;;;;9.39;43.98;101838.25;5114755;28;20074;-59
2022/02/23 00:58:17;;;;;;;9.38;5.05;;;;;;;9.36;44.06;101830.50;5114649;28;20058;-60
2022/02/23 01:00:44;;;;;;;7.55;5.20;;;;;;;9.34;44.05;101837.56;5114509;28;20044;-59
2022/02/23 01:03:11;;;;;;;8.10;5.30;;;;;;;9.27;44.14;101836.91;5103281;28;20047;-59
2022/02/23 01:05:37;;;;;;;7.03;5.13;;;;;;;9.28;44.08;101837.75;5113965;28;20445;-59
2022/02/23 01:08:04;;;;;;;7.55;4.93;;;;;;;9.30;44.08;101844.66;5113304;28;20097;-59
2022/02/23 01:10:31;;;;;;;8.43;5.40;;;;;;;9.29;44.07;101840.34;5114612;28;20040;-60
2022/02/23 01:12:58;;;;;;;8.20;5.18;;;;;;;9.27;44.00;101844.78;5114214;28;20083;-59
2022/02/23 01:15:26;;;;;;;8.15;5.32;;;;;;;9.25;44.02;101851.81;5106255;28;20047;-60
2022/02/23 01:17:53;;;;;;;7.13;4.45;;;;;;;9.24;44.17;101841.41;5113510;27;20072;-59
2022/02/23 01:20:19;;;;;;;8.40;5.13;;;;;;;9.21;44.29;101844.13;5114454;28;20051;-59
2022/02/23 01:22:46;;;;;;;13.35;4.90;;;;;;;9.20;44.28;101858.97;5113669;28;20047;-60
2022/02/23 01:25:12;;;;;;;7.78;5.20;;;;;;;9.12;44.82;101858.38;5114518;28;20434;-59
2022/02/23 01:27:39;;;;;;;9.00;5.43;;;;;;;9.10;44.69;101862.81;5114382;28;20051;-59
2022/02/23 01:30:06;;;;;;;9.15;6.00;;;;;;;9.06;44.74;101855.97;5114068;28;20179;-59
2022/02/23 01:32:33;;;;;;;10.38;6.28;;;;;;;9.03;45.13;101850.81;5114183;28;20048;-59
2022/02/23 01:35:00;;;;;;;9.23;6.68;;;;;;;8.99;45.17;101857.94;5108610;28;20047;-59
2022/02/23 01:37:27;;;;;;;10.43;6.78;;;;;;;8.96;45.03;101858.00;5108216;28;20516;-60
2022/02/23 01:39:53;;;;;;;9.63;6.70;;;;;;;8.93;45.25;101864.19;5105027;28;20446;-59
2022/02/23 01:42:20;;;;;;;8.90;6.57;;;;;;;8.91;45.25;101867.78;5109246;28;20112;-59
2022/02/23 01:44:46;;;;;;;9.90;6.93;;;;;;;8.88;45.39;101866.09;5098592;28;20048;-59
2022/02/23 01:47:13;;;;;;;10.85;6.45;;;;;;;8.87;45.29;101877.47;5110329;28;20047;-59
2022/02/23 01:49:40;;;;;;;10.88;7.13;;;;;;;8.86;45.38;101873.13;5113926;28;20039;-59
2022/02/23 01:52:08;;;;;;;8.95;6.50;;;;;;;8.80;45.64;101863.72;5107802;27;20040;-59
2022/02/23 01:54:35;;;;;;;10.20;6.97;;;;;;;8.79;45.42;101856.78;5113605;28;20043;-60
2022/02/23 01:57:02;;;;;;;10.75;6.93;;;;;;;8.73;45.58;101866.59;5113650;28;20047;-60
2022/02/23 01:59:28;;;;;;;7.88;5.95;;;;;;;8.71;45.68;101861.41;5113434;28;20043;-61
2022/02/23 02:01:55;;;;;;;9.30;6.65;;;;;;;8.67;45.61;101857.16;5113725;28;20047;-59
2022/02/23 02:04:22;;;;;;;10.35;6.80;;;;;;;8.62;45.75;101859.94;5113514;28;20043;-60
2022/02/23 02:06:50;;;;;;;10.30;6.57;;;;;;;8.60;45.66;101866.94;5113415;28;20085;-59
2022/02/23 02:09:17;;;;;;;9.57;6.63;;;;;;;8.63;45.59;101864.25;5103287;27;20040;-59
2022/02/23 02:11:44;;;;;;;9.25;6.57;;;;;;;8.65;45.63;101867.66;5112775;28;20499;-59
2022/02/23 02:14:11;;;;;;;9.07;7.00;;;;;;;8.62;45.61;101864.28;5113306;28;20104;-59
2022/02/23 02:16:38;;;;;;;12.63;6.93;;;;;;;8.63;45.68;101861.66;5113284;28;20043;-63
2022/02/23 02:19:06;;;;;;;9.93;7.18;;;;;;;8.60;45.87;101864.34;5113247;28;20528;-59
2022/02/23 02:22:06;;;;;;;12.57;8.02;;;;;;;8.58;45.90;101858.31;5113133;28;20407;-59
2022/02/23 02:24:35;;;;;;;13.73;7.85;;;;;;;8.57;46.02;101861.81;5111148;28;20097;-60
2022/02/23 02:27:04;;;;;;;19.27;9.15;;;;;;;8.53;46.12;101864.56;5109139;28;20544;-59
2022/02/23 02:29:31;;;;;;;12.30;8.95;;;;;;;8.49;46.38;101866.41;5105000;28;20048;-59
2022/02/23 02:32:00;;;;;;;15.02;9.40;;;;;;;8.47;46.52;101858.63;5108798;28;20043;-59
2022/02/23 02:34:26;;;;;;;12.93;8.27;;;;;;;8.45;46.50;101852.53;5105204;28;20036;-59
2022/02/23 02:36:53;;;;;;;14.80;8.68;;;;;;;8.45;46.75;101855.16;5108402;28;20051;-60
2022/02/23 02:39:21;;;;;;;10.88;8.48;;;;;;;8.43;46.84;101850.88;5107090;28;20503;-59
2022/02/23 02:41:48;;;;;;;13.50;8.23;;;;;;;8.40;46.80;101846.59;5105379;28;20484;-60
2022/02/23 02:44:15;;;;;;;11.02;7.43;;;;;;;8.38;46.64;101844.91;5096521;28;20047;-59
2022/02/23 02:46:43;;;;;;;14.63;7.53;;;;;;;8.40;46.43;101849.19;5105001;28;20040;-59
2022/02/23 02:49:09;;;;;;;9.80;6.63;;;;;;;8.40;46.31;101854.44;5111839;28;20051;-59
2022/02/23 02:51:37;;;;;;;8.75;6.28;;;;;;;8.39;46.28;101857.94;5112766;28;20048;-59
2022/02/23 02:54:05;;;;;;;9.88;5.93;;;;;;;8.34;46.21;101850.25;5111793;28;20483;-59
2022/02/23 02:56:32;;;;;;;8.30;5.95;;;;;;;8.33;46.13;101843.31;5112526;28;20047;-59
2022/02/23 02:58:59;;;;;;;9.07;5.95;;;;;;;8.36;45.78;101844.97;5111303;28;20040;-60
2022/02/23 03:01:28;;;;;;;7.78;5.40;;;;;;;8.36;45.75;101841.50;5100002;28;20059;-60
2022/02/23 03:03:55;;;;;;;7.32;5.55;;;;;;;8.33;45.66;101834.63;5112491;28;20093;-59
2022/02/23 03:06:22;;;;;;;8.60;5.22;;;;;;;8.32;45.61;101841.59;5112719;28;20051;-59
2022/02/23 03:08:56;;;;;;;7.22;5.47;;;;;;;8.29;45.46;101839.06;5112462;28;20048;-58
2022/02/23 03:11:33;;;;;;;6.93;4.95;;;;;;;8.32;45.07;101841.59;5111642;28;20048;-59
2022/02/23 03:14:11;;;;;;;6.95;5.13;;;;;;;8.31;45.10;101845.09;5111796;28;20043;-58
2022/02/23 03:16:43;;;;;;;7.32;5.22;;;;;;;8.32;44.91;101841.59;5098615;28;20050;-59
2022/02/23 03:19:09;;;;;;;9.48;4.75;;;;;;;8.29;44.95;101840.81;5112450;28;20051;-60
2022/02/23 03:21:36;;;;;;;6.72;4.68;;;;;;;8.29;44.85;101839.06;5112147;28;20043;-59
2022/02/23 03:24:03;;;;;;;7.78;4.57;;;;;;;8.29;44.97;101844.31;5112030;28;20054;-59
2022/02/23 03:26:31;;;;;;;7.47;4.38;;;;;;;8.28;44.71;101839.13;5112347;28;20067;-59
2022/02/23 03:28:57;;;;;;;8.35;5.15;;;;;;;8.25;44.69;101842.69;5112342;28;20088;-59
2022/02/23 03:31:24;;;;;;;7.70;4.75;;;;;;;8.22;44.80;101844.53;5101234;28;20500;-59
2022/02/23 03:33:51;;;;;;;8.75;4.53;;;;;;;8.21;44.76;101853.28;5112105;28;20040;-60
2022/02/23 03:36:17;;;;;;;8.68;4.32;;;;;;;8.18;44.65;101860.28;5112132;28;20492;-59
2022/02/23 03:38:46;;;;;;;7.40;4.13;;;;;;;8.18;44.63;101855.06;5111926;28;20039;-59
2022/02/23 03:41:14;;;;;;;7.78;3.92;;;;;;;8.18;44.54;101860.28;5112068;28;20048;-59
2022/02/23 03:43:41;;;;;;;5.53;4.28;;;;;;;8.20;44.40;101860.25;5110568;28;20164;-59
2022/02/23 03:46:08;;;;;;;5.45;3.60;;;;;;;8.16;44.47;101850.78;5102182;28;20043;-59
2022/02/23 03:48:38;;;;;;;5.43;3.72;;;;;;;8.13;44.47;101851.72;5110333;28;20044;-59
2022/02/23 03:51:06;;;;;;;8.10;4.43;;;;;;;8.11;44.22;101856.16;5102200;28;20108;-60
2022/02/23 03:53:33;;;;;;;5.43;3.47;;;;;;;8.07;44.21;101854.50;5115966;28;20071;-60
2022/02/23 03:56:00;;;;;;;5.03;3.63;;;;;;;8.05;44.26;101863.28;5115765;28;20495;-59
2022/02/23 03:58:27;;;;;;;4.82;3.70;;;;;;;8.05;44.05;101866.78;5115947;28;20051;-59
2022/02/23 04:00:53;;;;;;;5.65;3.35;;;;;;;8.04;43.85;101864.19;5097605;28;20047;-59
2022/02/23 04:03:20;;;;;;;6.85;3.20;;;;;;;8.03;43.64;101870.34;5093844;28;20403;-59
2022/02/23 04:05:47;;;;;;;5.20;3.10;;;;;;;7.99;43.73;101877.41;5112418;28;20101;-60
2022/02/23 04:08:14;;;;;;;3.63;2.70;;;;;;;8.00;43.51;101871.28;5100173;28;20501;-59
2022/02/23 04:10:40;;;;;;;4.18;2.90;;;;;;;7.99;43.40;101880.88;5112419;28;20105;-59
2022/02/23 04:13:07;;;;;;;5.25;3.00;;;;;;;8.00;43.15;101868.66;5112061;28;20058;-60
2022/02/23 04:15:34;;;;;;;5.55;2.85;;;;;;;8.00;43.05;101879.13;5112290;28;20403;-59
2022/02/23 04:18:04;;;;;;;4.68;2.78;;;;;;;8.00;42.85;101893.03;5112259;28;20052;-59
2022/02/23 04:20:30;;;;;;;3.97;2.72;;;;;;;8.00;42.78;101886.97;5112367;28;20044;-60
2022/02/23 04:22:57;;;;;;;6.47;2.38;;;;;;;8.01;42.74;101883.44;5097540;28;22104;-59
2022/02/23 04:25:24;;;;;;;3.50;2.70;;;;;;;8.00;42.61;101893.03;5112083;28;20089;-59
2022/02/23 04:27:51;;;;;;;3.65;2.67;;;;;;;7.97;42.62;101895.75;5111639;28;20489;-59
2022/02/23 04:30:17;;;;;;;4.63;2.10;;;;;;;7.95;42.54;101897.53;5112492;28;20051;-59
2022/02/23 04:32:44;;;;;;;3.55;2.60;;;;;;;7.95;42.39;101894.06;5112154;28;20039;-56
2022/02/23 04:35:10;;;;;;;4.68;2.78;;;;;;;7.95;42.34;101902.75;5111947;28;20097;-56
2022/02/23 04:37:37;;;;;;;5.13;2.92;;;;;;;7.94;42.44;101903.66;5101904;28;20048;-56
2022/02/23 04:40:05;;;;;;;4.63;2.90;;;;;;;7.93;42.34;101901.94;5109034;28;20054;-58
2022/02/23 04:42:32;;;;;;;3.45;2.22;;;;;;;7.93;42.19;101901.94;5112051;28;20054;-56
2022/02/23 04:45:00;;;;;;;4.68;2.65;;;;;;;7.95;41.96;101904.53;5099313;28;20052;-56
2022/02/23 04:47:29;;;;;;;3.97;2.20;;;;;;;7.94;42.05;101905.44;5110242;28;20048;-56
2022/02/23 04:49:56;;;;;;;2.80;1.88;;;;;;;7.92;42.05;101905.47;5111700;28;20538;-56
2022/02/23 04:52:24;;;;;;;2.38;1.58;;;;;;;7.93;41.97;101912.38;5111474;28;20066;-58
2022/02/23 04:54:54;;;;;;;5.28;2.10;;;;;;;7.92;41.93;101909.81;5109405;28;20085;-57
2022/02/23 04:57:21;;;;;;;2.22;1.70;;;;;;;7.90;41.90;101909.00;5111084;28;20127;-57
2022/02/23 04:59:49;;;;;;;3.75;1.80;;;;;;;7.88;41.65;101908.19;5111372;28;20064;-57
2022/02/23 05:02:15;;;;;;;2.28;1.67;;;;;;;7.88;41.63;101905.59;5111218;28;20561;-57
2022/02/23 05:04:42;;;;;;;2.60;1.90;;;;;;;7.87;41.67;101912.56;5111438;28;20499;-57
2022/02/23 05:07:09;;;;;;;4.97;2.08;;;;;;;7.84;41.90;101912.66;5111048;28;20052;-57
2022/02/23 05:09:37;;;;;;;5.60;2.15;;;;;;;7.80;42.05;101911.03;5109940;28;20043;-57
2022/02/23 05:12:06;;;;;;;5.22;2.40;;;;;;;7.75;42.10;101915.50;5109989;28;20070;-57
2022/02/23 05:14:34;;;;;;;3.97;2.75;;;;;;;7.70;42.45;101926.06;5109555;28;20097;-57
2022/02/23 05:17:01;;;;;;;10.95;3.28;;;;;;;7.65;42.63;101934.00;5110449;28;20055;-57
2022/02/23 05:19:29;;;;;;;5.78;2.50;;;;;;;7.63;42.89;101934.94;5109401;28;20047;-57
2022/02/23 05:21:55;;;;;;;4.40;2.33;;;;;;;7.59;42.99;101938.53;5109949;28;20056;-58
2022/02/23 05:24:22;;;;;;;5.45;2.85;;;;;;;7.52;43.27;101933.47;5109232;28;20043;-57
2022/02/23 05:26:49;;;;;;;10.93;3.90;;;;;;;7.51;43.50;101936.13;5104505;28;20541;-57
2022/02/23 05:29:15;;;;;;;5.90;3.35;;;;;;;7.46;43.74;101932.75;5103577;28;20097;-57
2022/02/23 05:31:42;;;;;;;4.18;2.95;;;;;;;7.42;43.83;101933.75;5109139;28;20096;-56
2022/02/23 05:34:08;;;;;;;3.92;2.40;;;;;;;7.40;44.03;101938.97;5109735;28;20434;-57
2022/02/23 05:36:35;;;;;;;5.13;2.75;;;;;;;7.38;44.14;101950.34;5109165;28;20060;-57
2022/02/23 05:39:03;;;;;;;5.30;2.55;;;;;;;7.35;44.07;101949.56;5109508;28;20104;-57
2022/02/23 05:41:29;;;;;;;9.90;2.92;;;;;;;7.31;44.41;101947.91;5109014;28;20107;-57
2022/02/23 05:43:56;;;;;;;5.55;2.90;;;;;;;7.29;44.54;101954.91;5096567;28;20098;-57
2022/02/23 05:46:23;;;;;;;5.95;3.03;;;;;;;7.27;44.12;101967.13;5100088;28;20051;-57
2022/02/23 05:48:49;;;;;;;11.23;4.43;;;;;;;7.23;44.53;101968.09;5110397;28;20040;-57
2022/02/23 05:51:37;;;;;;;13.02;4.13;;;;;;;7.17;44.87;101978.69;5108174;28;20051;-58
2022/02/23 05:54:05;;;;;;;10.52;5.32;;;;;;;7.13;44.91;101979.66;5106205;28;20047;-57
2022/02/23 05:56:32;;;;;;;20.45;6.38;;;;;;;7.06;45.05;101973.72;5108387;28;20048;-57
2022/02/23 05:58:59;;;;;;;9.77;3.90;;;;;;;7.10;44.90;101969.28;5103565;27;20093;-57
2022/02/23 06:01:26;;;;;;;7.82;3.50;;;;;;;7.07;45.09;101974.56;5101491;28;20389;-58
2022/02/23 06:03:53;;;;;;;5.90;3.15;;;;;;;6.99;45.11;101990.38;5094142;28;20044;-58
2022/02/23 06:06:19;;;;;;;14.30;4.03;;;;;;;6.87;45.41;101999.34;5103905;28;20047;-57
2022/02/23 06:08:46;;;;;;;5.55;3.25;;;;;;;6.79;45.51;101993.41;5098732;28;20102;-57
2022/02/23 06:11:15;;;;;;;6.63;3.40;;;;;;;6.77;45.50;102003.03;5102193;28;20039;-58
2022/02/23 06:13:42;;;;;;;6.32;3.00;;;;;;;6.79;45.51;101996.91;5101197;28;20055;-57
2022/02/23 06:16:08;;;;;;;5.65;3.13;;;;;;;6.69;45.71;102019.69;5099952;27;20069;-58
2022/02/23 06:18:35;;;;;;;14.30;3.08;;;;;;;6.63;46.11;102024.19;5108902;28;20101;-58
2022/02/23 06:21:02;;;;;;;7.68;3.28;;;;;;;6.60;46.08;102021.63;5098292;28;20113;-58
2022/02/23 06:23:28;;;;;;;5.93;3.72;;;;;;;6.56;46.25;102025.19;5103273;28;20448;-58
2022/02/23 06:25:55;;;;;;;8.00;3.88;;;;;;;6.61;45.87;102032.00;5098056;28;20044;-59
2022/02/23 06:28:21;;;;;;;10.60;4.43;;;;;;;6.65;46.27;102040.63;5102922;28;20044;-58
2022/02/23 06:30:48;;;;;;;13.63;4.20;;;;;;;6.66;46.10;102034.53;5099959;28;20109;-59
2022/02/23 06:33:18;;;;;;;9.18;4.20;;;;;;;6.72;46.10;102033.56;5099003;28;20042;-58
2022/02/23 06:35:45;;;;;;;7.20;3.92;;;;;;;6.71;46.34;102035.31;5101357;28;20055;-58
2022/02/23 06:38:12;;;;;;;11.48;3.97;;;;;;;6.71;46.34;102043.13;5099306;28;20047;-58
2022/02/23 06:40:39;;;;;;;9.38;4.07;;;;;;;6.67;46.65;102044.94;5102667;28;20044;-57
2022/02/23 06:43:06;;;;;;;9.45;4.32;;;;;;;6.72;46.60;102043.97;5097389;28;20044;-57
2022/02/23 06:45:33;;;;;;;7.07;4.40;;;;;;;6.68;46.68;102046.66;5100146;28;20097;-59
2022/02/23 06:48:00;;;;;;;6.85;4.25;;;;;;;6.72;46.60;102046.59;5100250;28;20102;-58
2022/02/23 06:50:27;;;;;;;9.05;5.88;;;;;;;6.74;46.57;102056.09;5091806;28;20437;-57
2022/02/23 06:52:55;;;;;;;10.32;4.05;;;;;;;6.78;46.61;102056.91;5088916;28;20040;-58
2022/02/23 06:55:21;;;;;;;6.70;4.60;;;;;;;6.77;46.67;102055.22;5088884;28;20048;-58
2022/02/23 06:57:48;;;;;;;10.20;4.75;;;;;;;6.75;46.93;102057.84;5089126;28;20093;-58
2022/02/23 07:00:15;;;;;;;11.88;5.13;;;;;;;6.79;47.02;102058.63;5089161;28;20458;-57
2022/02/23 07:02:42;;;;;;;12.00;4.82;;;;;;;6.84;46.95;102051.56;5088700;28;20043;-58
2022/02/23 07:05:09;;;;;;;10.10;5.68;;;;;;;6.92;46.97;102057.53;5088955;28;20048;-57
2022/02/23 07:07:35;;;;;;;12.88;6.10;;;;;;;7.01;46.91;102067.75;5102262;27;20047;-58
2022/02/23 07:10:09;;;;;;;10.43;6.30;;;;;;;7.09;46.83;102069.38;5088740;28;20070;-57
2022/02/23 07:12:36;;;;;;;10.48;6.03;;;;;;;7.16;46.80;102063.97;5092570;28;20097;-57
2022/02/23 07:15:04;;;;;;;15.05;7.10;;;;;;;7.27;46.73;102068.13;5095090;28;20101;-58
2022/02/23 07:17:31;;;;;;;11.95;5.60;;;;;;;7.33;46.55;102068.84;5102538;28;20476;-56
2022/02/23 07:19:58;;;;;;;9.70;5.70;;;;;;;7.45;46.53;102072.06;5094663;28;20048;-57
2022/02/23 07:22:25;;;;;;;8.05;5.32;;;;;;;7.61;46.33;102075.22;5101098;28;20101;-57
2022/02/23 07:24:52;;;;;;;10.25;5.40;;;;;;;7.81;45.84;102065.16;5099652;27;20130;-57
2022/02/23 07:27:18;;;;;;;8.68;4.85;;;;;;;8.07;45.14;102074.09;5099697;28;20442;-58
2022/02/23 07:29:46;;;;;;;10.20;5.05;;;;;;;8.38;44.60;102080.31;5098974;28;20040;-57
2022/02/23 07:32:13;;;;;;;8.40;5.40;;;;;;;8.57;44.14;102088.56;5102354;28;20132;-57
2022/02/23 07:34:41;;;;;;;11.52;5.50;;;;;;;8.92;43.71;102092.00;5101547;28;20044;-57
2022/02/23 07:37:07;;;;;;;13.52;6.15;;;;;;;8.97;43.59;102088.34;5100458;28;20040;-57
2022/02/23 07:39:34;;;;;;;9.00;5.10;;;;;;;9.03;43.74;102091.69;5097239;28;20044;-60
2022/02/23 07:42:02;;;;;;;7.22;5.00;;;;;;;9.20;43.53;102091.22;5096979;27;20063;-60
2022/02/23 07:44:48;;;;;;;9.38;5.22;;;;;;;9.43;43.22;102088.78;5098852;28;20444;-59
2022/02/23 07:47:15;;;;;;;9.63;5.20;;;;;;;9.63;43.03;102089.94;5098369;28;20044;-59
2022/02/23 07:49:46;;;;;;;13.05;4.65;;;;;;;9.77;43.08;102094.75;5097155;28;20055;-60
2022/02/23 07:52:13;;;;;;;7.50;4.18;;;;;;;9.97;42.85;102101.97;5097018;28;20043;-60
2022/02/23 07:54:42;;;;;;;6.57;4.57;;;;;;;10.00;43.10;102101.03;5098155;28;20127;-60
2022/02/23 07:57:09;;;;;;;9.10;5.00;;;;;;;10.15;42.73;102113.63;5102404;28;20036;-60
2022/02/23 07:59:36;;;;;;;11.10;4.80;;;;;;;10.37;42.16;102105.06;5102855;27;20106;-59
2022/02/23 08:02:04;;;;;;;8.60;4.95;;;;;;;10.49;42.01;102103.78;5097976;28;20070;-60
2022/02/23 08:04:32;;;;;;;5.97;3.75;;;;;;;10.62;41.76;102111.19;5098942;28;20094;-59
2022/02/23 08:06:59;;;;;;;5.40;3.50;;;;;;;10.75;41.15;102113.38;5098914;28;20036;-60
2022/02/23 08:09:26;;;;;;;6.88;3.78;;;;;;;10.89;40.38;102110.28;5077862;27;20040;-60
2022/02/23 08:11:53;;;;;;;7.47;3.60;;;;;;;10.94;39.86;102111.84;5107631;28;20050;-59
2022/02/23 08:14:20;;;;;;;6.50;3.58;;;;;;;11.18;39.37;102118.88;5098810;27;20055;-59
2022/02/23 08:19:36;;;;;;;4.80;3.00;;;;;;;11.61;38.46;102119.84;5093997;28;20048;-60
2022/02/23 08:22:12;;;;;;;6.90;3.40;;;;;;;11.59;38.61;102124.31;5094351;28;20492;-59
2022/02/23 08:24:44;;;;;;;6.93;3.72;;;;;;;11.82;38.24;102126.06;5094631;27;20052;-59
2022/02/23 08:27:13;;;;;;;6.82;3.92;;;;;;;12.12;38.03;102131.03;5094658;28;20044;-60
2022/02/23 08:29:40;;;;;;;8.65;5.10;;;;;;;12.27;38.06;102141.84;5093876;27;20044;-60
2022/02/23 08:32:10;;;;;;;9.60;5.43;;;;;;;12.30;38.21;102128.56;5095086;27;20117;-60
2022/02/23 08:34:39;;;;;;;15.77;4.95;;;;;;;12.27;38.48;102134.81;5096002;28;20408;-60
2022/02/23 08:37:06;;;;;;;10.23;4.55;;;;;;;12.35;38.45;102140.59;5097697;28;20567;-59
2022/02/23 08:39:34;;;;;;;9.70;5.43;;;;;;;12.62;37.99;102150.91;5094127;28;20048;-60
2022/02/23 08:42:04;;;;;;;22.15;12.50;;;;;;;12.79;38.10;102144.06;5098567;28;20202;-60
2022/02/23 08:44:30;;;;;;;8.90;4.80;;;;;;;13.02;37.55;102150.94;5095056;28;20051;-59
2022/02/23 08:46:57;;;;;;;9.32;3.95;;;;;;;13.12;37.39;102143.50;5105361;28;20491;-60
2022/02/23 08:49:24;;;;;;;6.35;3.72;;;;;;;13.07;37.43;102143.69;5107121;27;20204;-60
2022/02/23 08:51:51;;;;;;;5.00;3.00;;;;;;;13.27;36.48;102144.56;5093828;28;20055;-60
2022/02/23 08:54:20;;;;;;;7.80;3.90;;;;;;;13.53;35.65;102149.53;5097827;28;20096;-60
2022/02/23 08:56:47;;;;;;;5.68;3.42;;;;;;;13.75;35.26;102147.66;5093095;28;20036;-59
2022/02/23 08:59:14;;;;;;;5.78;3.78;;;;;;;13.96;35.17;102146.63;5097492;28;20040;-60
2022/02/23 09:01:42;;;;;;;8.32;3.45;;;;;;;14.18;34.93;102161.41;5099182;28;20121;-60
2022/02/23 09:04:10;;;;;;;7.95;4.07;;;;;;;14.31;34.94;102162.53;5094043;28;20473;-59
2022/02/23 09:06:39;;;;;;;7.30;3.17;;;;;;;14.38;34.27;102163.06;5097214;28;20373;-60
2022/02/23 09:09:11;;;;;;;5.70;3.45;;;;;;;14.50;33.86;102166.88;5098207;28;20495;-59
2022/02/23 09:11:38;;;;;;;7.00;3.25;;;;;;;14.75;33.29;102163.03;5101979;28;20046;-60
2022/02/23 09:14:05;;;;;;;5.65;3.17;;;;;;;14.88;33.19;102165.88;5090169;28;20048;-60
2022/02/23 09:16:32;;;;;;;6.32;3.75;;;;;;;15.02;32.73;102172.16;5099921;28;20048;-60
2022/02/23 09:18:58;;;;;;;8.88;3.63;;;;;;;15.28;32.56;102169.06;5093814;28;20040;-60
2022/02/23 09:21:25;;;;;;;9.10;4.50;;;;;;;15.48;31.97;102170.66;5093399;28;20299;-60
2022/02/23 09:23:52;;;;;;;11.68;6.15;;;;;;;15.44;32.20;102175.25;5091264;28;20093;-60
2022/02/23 09:26:19;;;;;;;13.32;6.95;;;;;;;15.58;31.92;102165.69;5100884;28;20048;-60
2022/02/23 09:28:47;;;;;;;15.90;8.10;;;;;;;15.66;31.90;102168.78;5094866;28;20492;-60
2022/02/23 09:31:14;;;;;;;11.00;5.78;;;;;;;15.64;32.14;102178.56;5102032;28;20051;-60
2022/02/23 09:33:41;;;;;;;11.07;5.00;;;;;;;15.89;31.60;102174.63;5094791;28;20047;-59
2022/02/23 09:36:12;;;;;;;12.07;5.10;;;;;;;16.04;31.58;102167.59;5097240;28;20043;-60
2022/02/23 09:38:39;;;;;;;27.80;17.25;;;;;;;16.28;30.94;102170.63;5095704;28;20039;-60
2022/02/23 09:41:09;;;;;;;12.85;6.05;;;;;;;16.39;30.76;102176.16;5093337;28;20040;-60
2022/02/23 09:43:37;;;;;;;14.40;8.73;;;;;;;16.56;30.53;102177.81;5093855;28;20043;-61
2022/02/23 09:46:06;;;;;;;8.52;5.07;;;;;;;16.67;30.43;102177.19;5096683;28;20039;-60
2022/02/23 09:48:33;;;;;;;8.85;4.93;;;;;;;16.73;30.54;102173.31;5099962;28;20040;-60
2022/02/23 09:51:01;;;;;;;9.48;5.63;;;;;;;16.94;30.04;102195.91;5101020;28;20055;-61
2022/02/23 09:53:28;;;;;;;10.63;5.45;;;;;;;17.12;29.79;102196.56;5090765;28;20050;-61
2022/02/23 09:55:56;;;;;;;7.55;4.70;;;;;;;17.28;29.92;102203.59;5088758;28;20531;-61
2022/02/23 09:58:24;;;;;;;12.13;7.20;;;;;;;17.55;29.75;102193.06;5092099;28;20420;-61
2022/02/23 10:00:54;;;;;;;9.80;5.72;;;;;;;17.70;29.70;102193.03;5092517;28;20496;-61
2022/02/23 10:03:22;;;;;;;8.88;6.32;;;;;;;17.82;29.24;102200.22;5092475;28;20074;-61
2022/02/23 10:05:48;;;;;;;18.48;11.93;;;;;;;17.94;29.02;102210.09;5093366;28;20412;-61
2022/02/23 10:08:15;;;;;;;12.75;6.65;;;;;;;18.04;28.87;102207.69;5089627;28;20044;-61
2022/02/23 10:11:02;;;;;;;10.00;5.47;;;;;;;18.19;28.97;102200.50;5104435;28;20087;-61
2022/02/23 10:13:29;;;;;;;8.25;6.03;;;;;;;18.33;28.63;102206.72;5089059;28;20059;-62
2022/02/23 10:15:58;;;;;;;8.63;5.25;;;;;;;18.46;28.86;102206.75;5105816;28;20048;-61
2022/02/23 10:18:45;;;;;;;8.05;4.82;;;;;;;18.63;28.29;102208.25;5109348;28;20039;-61
2022/02/23 10:21:18;;;;;;;10.02;6.43;;;;;;;18.70;28.28;102209.56;5108895;28;20051;-61
2022/02/23 10:23:44;;;;;;;10.00;6.10;;;;;;;18.77;28.32;102203.72;5108556;28;20096;-61
2022/02/23 10:26:12;;;;;;;14.15;8.43;;;;;;;18.81;28.26;102206.19;5108501;28;20040;-61
2022/02/23 10:28:40;;;;;;;9.77;6.30;;;;;;;18.91;28.04;102199.31;5098544;28;20043;-61
2022/02/23 10:31:09;;;;;;;9.32;6.30;;;;;;;19.01;27.63;102205.69;5109005;28;20439;-61
2022/02/23 10:33:38;;;;;;;9.57;6.00;;;;;;;19.15;27.42;102212.72;5109159;28;20051;-60
2022/02/23 10:36:22;;;;;;;8.40;6.05;;;;;;;19.31;27.21;102208.97;5108241;28;20054;-61
2022/02/23 10:39:00;;;;;;;9.13;6.10;;;;;;;19.33;27.30;102204.41;5109089;28;20047;-60
2022/02/23 10:41:31;;;;;;;9.07;6.47;;;;;;;19.34;27.21;102206.94;5108732;28;20059;-60
2022/02/23 10:43:59;;;;;;;12.88;7.95;;;;;;;19.45;27.03;102213.31;5099459;28;20036;-60
2022/02/23 10:46:26;;;;;;;8.68;6.05;;;;;;;19.25;26.85;102204.94;5093641;28;20480;-60
2022/02/23 10:48:58;;;;;;;9.73;6.22;;;;;;;19.30;26.81;102202.81;5098881;28;20093;-61
2022/02/23 10:51:30;;;;;;;10.75;6.95;;;;;;;19.47;26.41;102206.09;5107822;28;20051;-61
2022/02/23 10:54:08;;;;;;;15.82;7.05;;;;;;;19.57;26.48;102199.97;5105661;28;20443;-61
2022/02/23 10:56:37;;;;;;;8.80;6.28;;;;;;;19.68;26.59;102203.69;5095743;28;20542;-61
2022/02/23 10:59:14;;;;;;;13.70;8.00;;;;;;;19.82;26.00;102205.34;5097519;28;20069;-61
2022/02/23 11:01:47;;;;;;;8.95;6.22;;;;;;;19.90;26.15;102195.03;5094550;28;20044;-60
2022/02/23 11:04:15;;;;;;;10.48;5.53;;;;;;;20.06;25.98;102198.25;5094269;28;20472;-59
2022/02/23 11:06:44;;;;;;;8.45;4.00;;;;;;;20.23;26.33;102199.66;5091362;28;20043;-61
2022/02/23 11:09:11;;;;;;;8.73;5.72;;;;;;;20.31;27.33;102195.56;5092163;28;20085;-62
2022/02/23 11:11:38;;;;;;;8.63;6.88;;;;;;;20.35;27.44;102200.56;5093692;28;20044;-61
2022/02/23 11:14:10;;;;;;;8.07;6.30;;;;;;;20.45;26.41;102194.53;5091917;28;20489;-61
2022/02/23 11:16:37;;;;;;;8.10;5.97;;;;;;;20.32;26.23;102194.63;5088883;28;20097;-61
2022/02/23 11:19:05;;;;;;;9.95;6.30;;;;;;;20.51;25.79;102191.41;5091446;28;20089;-61
2022/02/23 11:21:34;;;;;;;9.90;5.80;;;;;;;20.61;25.34;102194.19;5095011;28;20487;-61
2022/02/23 11:24:04;;;;;;;8.77;5.75;;;;;;;20.65;25.08;102193.84;5091226;28;20078;-60
2022/02/23 11:26:34;;;;;;;8.45;6.13;;;;;;;20.73;24.58;102198.63;5094885;28;20063;-61
2022/02/23 11:29:12;;;;;;;10.70;6.72;;;;;;;20.79;24.78;102195.50;5091919;28;20044;-61
2022/02/23 11:31:39;;;;;;;9.88;6.70;;;;;;;20.71;24.59;102190.75;5091443;28;20048;-60
2022/02/23 11:34:07;;;;;;;11.07;7.60;;;;;;;20.74;24.87;102184.34;5092924;28;20048;-60
2022/02/23 11:36:44;;;;;;;21.70;16.98;;;;;;;20.93;24.64;102189.09;5097179;28;20081;-61